Time,TemperatureF,DewpointF,PressureIn,WindDirection,WindDirectionDegrees,WindSpeedMPH,WindSpeedGustMPH,Humidity,HourlyPrecipIn,Conditions,Clouds,dailyrainin,SoftwareType,DateUTC
2013-05-11 00:01:00,73.3,70.8,29.17,NE,54,2.2,2.3,92,0.00,RA,FEW,0.00,WeatherDisplay:10.37,2013-05-11 05:01:00,
2013-05-11 00:06:00,73.3,70.8,29.17,NE,55,0.7,3.5,92,0.00,RA,FEW,0.00,WeatherDisplay:10.37,2013-05-11 05:06:00,
2013-05-11 00:11:00,73.3,70.8,29.17,NE,38,0.1,2.3,92,0.00,,FEW,0.00,WeatherDisplay:10.37,2013-05-11 05:11:00,
2013-05-11 00:16:00,73.3,70.8,29.17,ENE,60,0.2,2.3,92,0.00,,FEW,0.00,WeatherDisplay:10.37,2013-05-11 05:16:00,
2013-05-11 00:21:00,73.1,70.6,29.17,East,94,0.5,2.3,92,0.00,,FEW,0.00,WeatherDisplay:10.37,2013-05-11 05:21:00,
2013-05-11 00:26:00,73.0,70.5,29.17,ESE,106,0.5,3.8,92,0.00,,FEW,0.00,WeatherDisplay:10.37,2013-05-11 05:26:00,
2013-05-11 00:31:00,72.9,70.8,29.16,East,95,0.5,2.1,93,0.00,,FEW,0.00,WeatherDisplay:10.37,2013-05-11 05:31:00,
2013-05-11 00:36:00,72.8,70.7,29.17,ENE,74,2.1,3.8,93,0.00,,FEW,0.00,WeatherDisplay:10.37,2013-05-11 05:36:00,
2013-05-11 00:41:00,72.7,70.6,29.16,NE,56,3.0,5.8,93,0.00,,FEW,0.00,WeatherDisplay:10.37,2013-05-11 05:41:00,
2013-05-11 00:46:00,72.7,70.6,29.16,ENE,59,0.7,2.3,93,0.00,,FEW,0.00,WeatherDisplay:10.37,2013-05-11 05:46:00,
2013-05-11 00:51:00,72.7,70.6,29.17,ENE,63,0.0,2.3,93,0.00,,FEW,0.00,WeatherDisplay:10.37,2013-05-11 05:51:00,
2013-05-11 00:56:00,72.6,70.5,29.17,NE,51,0.8,2.3,93,0.00,,FEW,0.00,WeatherDisplay:10.37,2013-05-11 05:56:00,
2013-05-11 01:01:00,72.6,70.5,29.17,ENE,68,0.3,2.3,93,0.00,,FEW,0.00,WeatherDisplay:10.37,2013-05-11 06:01:00,
2013-05-11 01:06:00,72.5,70.4,29.17,ENE,57,0.8,5.6,93,0.00,,FEW,0.00,WeatherDisplay:10.37,2013-05-11 06:06:00,
2013-05-11 01:11:00,72.6,70.5,29.17,ENE,77,0.8,3.5,93,0.00,,FEW,0.00,WeatherDisplay:10.37,2013-05-11 06:11:00,
2013-05-11 01:16:00,72.7,70.6,29.17,ENE,62,2.6,2.6,93,0.00,,FEW,0.00,WeatherDisplay:10.37,2013-05-11 06:16:00,
2013-05-11 01:21:00,72.8,70.7,29.18,East,79,0.2,0.0,93,0.00,,FEW,0.00,WeatherDisplay:10.37,2013-05-11 06:21:00,
2013-05-11 01:26:00,72.9,70.8,29.18,North,1,0.1,2.3,93,0.00,,FEW,0.00,WeatherDisplay:10.37,2013-05-11 06:26:00,
2013-05-11 01:31:00,72.9,70.8,29.18,NNE,13,1.6,2.3,93,0.00,,FEW,0.00,WeatherDisplay:10.37,2013-05-11 06:31:00,
2013-05-11 01:36:00,72.9,70.8,29.19,North,7,1.2,3.5,93,0.00,,FEW,0.00,WeatherDisplay:10.37,2013-05-11 06:36:00,
2013-05-11 01:41:00,72.7,70.6,29.20,WNW,284,0.0,0.0,93,0.00,,FEW,0.00,WeatherDisplay:10.37,2013-05-11 06:41:00,
2013-05-11 01:46:00,72.5,70.4,29.19,NE,38,0.3,0.0,93,0.00,,FEW,0.00,WeatherDisplay:10.37,2013-05-11 06:46:00,
2013-05-11 01:51:00,72.3,70.2,29.18,North,356,5.1,5.1,93,0.00,,FEW,0.00,WeatherDisplay:10.37,2013-05-11 06:51:00,
2013-05-11 01:56:00,72.0,69.9,29.17,ENE,63,5.4,5.8,93,0.00,,FEW,0.00,WeatherDisplay:10.37,2013-05-11 06:56:00,
2013-05-11 02:01:00,71.7,69.9,29.17,NNW,341,7.5,7.5,94,0.00,,FEW,0.00,WeatherDisplay:10.37,2013-05-11 07:01:00,
2013-05-11 02:06:00,71.4,69.6,29.17,NNE,25,4.0,4.0,94,0.00,,FEW,0.01,WeatherDisplay:10.37,2013-05-11 07:06:00,
2013-05-11 02:11:00,71.3,69.5,29.17,North,354,4.6,5.6,94,0.01,RA,FEW,0.01,WeatherDisplay:10.37,2013-05-11 07:11:00,
2013-05-11 02:16:00,71.2,69.7,29.18,North,352,4.1,8.1,95,0.01,RA,FEW,0.01,WeatherDisplay:10.37,2013-05-11 07:16:00,
2013-05-11 02:21:00,71.0,69.5,29.18,NNE,15,5.0,8.1,95,0.01,,FEW,0.01,WeatherDisplay:10.37,2013-05-11 07:21:00,
2013-05-11 02:26:00,71.0,69.5,29.19,East,95,0.9,3.5,95,0.01,,FEW,0.01,WeatherDisplay:10.37,2013-05-11 07:26:00,
2013-05-11 02:31:00,71.0,69.5,29.19,SSE,153,2.4,3.5,95,0.01,,FEW,0.01,WeatherDisplay:10.37,2013-05-11 07:31:00,
2013-05-11 02:36:00,70.8,69.3,29.19,East,95,2.1,3.2,95,0.02,RA,FEW,0.02,WeatherDisplay:10.37,2013-05-11 07:36:00,
2013-05-11 02:41:00,70.6,69.1,29.19,ENE,70,4.4,4.4,95,0.02,RA,FEW,0.02,WeatherDisplay:10.37,2013-05-11 07:41:00,
2013-05-11 02:46:00,70.5,69.0,29.18,NE,42,1.7,2.3,95,0.03,RA,FEW,0.03,WeatherDisplay:10.37,2013-05-11 07:46:00,
2013-05-11 02:51:00,70.3,68.8,29.18,NE,54,2.2,3.5,95,0.03,RA,FEW,0.03,WeatherDisplay:10.37,2013-05-11 07:51:00,
2013-05-11 02:56:00,70.2,70.2,29.19,NE,45,0.0,3.5,100,0.03,,FEW,0.03,WeatherDisplay:10.37,2013-05-11 07:56:00,
2013-05-11 03:01:00,70.1,70.1,29.19,NNW,342,0.0,0.0,100,0.03,,FEW,0.03,WeatherDisplay:10.37,2013-05-11 08:01:00,
2013-05-11 03:06:00,70.1,70.1,29.19,North,5,0.9,0.0,100,0.04,RA,FEW,0.04,WeatherDisplay:10.37,2013-05-11 08:06:00,
2013-05-11 03:11:00,70.1,70.1,29.19,NNW,348,0.3,2.3,100,0.03,RA,FEW,0.04,WeatherDisplay:10.37,2013-05-11 08:11:00,
2013-05-11 03:16:00,70.1,70.1,29.19,NNW,329,0.9,2.3,100,0.03,,FEW,0.05,WeatherDisplay:10.37,2013-05-11 08:16:00,
2013-05-11 03:21:00,70.1,70.1,29.20,NW,325,1.1,3.5,100,0.04,RA,FEW,0.05,WeatherDisplay:10.37,2013-05-11 08:21:00,
2013-05-11 03:26:00,70.2,70.2,29.21,NNW,344,0.0,0.0,100,0.04,RA,FEW,0.05,WeatherDisplay:10.37,2013-05-11 08:26:00,
2013-05-11 03:31:00,70.2,70.2,29.21,NNW,338,0.7,0.0,100,0.04,,FEW,0.05,WeatherDisplay:10.37,2013-05-11 08:31:00,
2013-05-11 03:36:00,70.3,70.3,29.22,WNW,298,0.3,2.3,100,0.04,RA,FEW,0.07,WeatherDisplay:10.37,2013-05-11 08:36:00,
2013-05-11 03:41:00,70.3,70.3,29.23,NW,304,4.3,4.3,100,0.04,RA,FEW,0.07,WeatherDisplay:10.37,2013-05-11 08:41:00,
2013-05-11 03:46:00,70.3,70.3,29.24,NW,305,0.3,5.8,100,0.03,,FEW,0.07,WeatherDisplay:10.37,2013-05-11 08:46:00,
2013-05-11 03:51:00,70.2,70.2,29.24,WNW,293,0.2,8.1,100,0.03,,FEW,0.07,WeatherDisplay:10.37,2013-05-11 08:51:00,
2013-05-11 03:56:00,70.1,70.1,29.25,NNW,332,4.0,5.6,100,0.04,RA,FEW,0.08,WeatherDisplay:10.37,2013-05-11 08:56:00,
2013-05-11 04:01:00,70.0,70.0,29.25,West,273,2.8,5.8,100,0.05,RA,FEW,0.09,WeatherDisplay:10.37,2013-05-11 09:01:00,
2013-05-11 04:06:00,70.0,70.0,29.26,WNW,303,4.0,4.0,100,0.05,RA,FEW,0.10,WeatherDisplay:10.37,2013-05-11 09:06:00,
2013-05-11 04:11:00,69.9,69.9,29.26,NW,308,0.8,3.5,100,0.07,RA,FEW,0.11,WeatherDisplay:10.37,2013-05-11 09:11:00,
2013-05-11 04:16:00,69.9,69.9,29.25,NW,305,2.4,3.8,100,0.08,RA,FEW,0.12,WeatherDisplay:10.37,2013-05-11 09:16:00,
2013-05-11 04:21:00,69.9,69.9,29.24,West,279,3.2,5.8,100,0.07,RA,FEW,0.12,WeatherDisplay:10.37,2013-05-11 09:21:00,
2013-05-11 04:26:00,69.9,69.9,29.24,NNW,334,6.5,8.1,100,0.08,RA,FEW,0.13,WeatherDisplay:10.37,2013-05-11 09:26:00,
2013-05-11 04:31:00,69.9,69.9,29.23,NNW,335,8.4,8.4,100,0.08,RA,FEW,0.13,WeatherDisplay:10.37,2013-05-11 09:31:00,
2013-05-11 04:36:00,69.9,69.9,29.23,NW,321,1.5,5.8,100,0.08,RA,FEW,0.14,WeatherDisplay:10.37,2013-05-11 09:36:00,
2013-05-11 04:41:00,69.9,69.9,29.22,NW,314,4.4,5.8,100,0.08,RA,FEW,0.14,WeatherDisplay:10.37,2013-05-11 09:41:00,
2013-05-11 04:46:00,69.9,69.9,29.21,NNW,332,3.5,8.1,100,0.09,RA,FEW,0.16,WeatherDisplay:10.37,2013-05-11 09:46:00,
2013-05-11 04:51:00,69.9,69.9,29.21,NNW,338,2.8,3.5,100,0.10,RA,FEW,0.17,WeatherDisplay:10.37,2013-05-11 09:51:00,
2013-05-11 04:56:00,69.9,69.9,29.20,NNW,347,0.1,3.5,100,0.10,RA,FEW,0.17,WeatherDisplay:10.37,2013-05-11 09:56:00,
2013-05-11 05:01:00,70.0,70.0,29.20,NNW,335,2.0,3.8,100,0.10,RA,FEW,0.19,WeatherDisplay:10.37,2013-05-11 10:01:00,
2013-05-11 05:06:00,70.0,70.0,29.20,NW,314,0.5,2.3,100,0.10,RA,FEW,0.20,WeatherDisplay:10.37,2013-05-11 10:06:00,
2013-05-11 05:11:00,70.1,70.1,29.19,NNW,329,0.3,2.3,100,0.09,RA,FEW,0.20,WeatherDisplay:10.37,2013-05-11 10:11:00,
2013-05-11 05:16:00,70.0,70.0,29.19,North,350,0.3,1.9,100,0.08,,FEW,0.20,WeatherDisplay:10.37,2013-05-11 10:16:00,
2013-05-11 05:21:00,70.0,70.0,29.19,NNW,335,4.2,4.2,100,0.08,,FEW,0.20,WeatherDisplay:10.37,2013-05-11 10:21:00,
2013-05-11 05:26:00,70.0,70.0,29.19,NNW,335,3.0,3.5,100,0.07,,FEW,0.20,WeatherDisplay:10.37,2013-05-11 10:26:00,
2013-05-11 05:31:00,70.1,70.1,29.19,NNW,339,3.8,5.8,100,0.07,,FEW,0.20,WeatherDisplay:10.37,2013-05-11 10:31:00,
2013-05-11 05:36:00,70.0,70.0,29.18,NW,321,0.1,2.3,100,0.05,,FEW,0.20,WeatherDisplay:10.37,2013-05-11 10:36:00,
2013-05-11 05:41:00,70.0,70.0,29.18,North,355,4.7,4.7,100,0.05,,FEW,0.20,WeatherDisplay:10.37,2013-05-11 10:41:00,
2013-05-11 05:46:00,70.0,70.0,29.17,NNW,346,0.6,2.3,100,0.04,,FEW,0.20,WeatherDisplay:10.37,2013-05-11 10:46:00,
2013-05-11 05:51:00,69.9,69.9,29.17,NE,56,0.7,2.3,100,0.03,,FEW,0.20,WeatherDisplay:10.37,2013-05-11 10:51:00,
2013-05-11 05:56:00,69.9,69.9,29.17,NE,50,0.5,0.0,100,0.02,,FEW,0.20,WeatherDisplay:10.37,2013-05-11 10:56:00,
2013-05-11 06:01:00,69.8,69.8,29.17,ENE,60,0.1,2.3,100,0.01,,FEW,0.20,WeatherDisplay:10.37,2013-05-11 11:01:00,
2013-05-11 06:06:00,69.8,69.8,29.17,NE,52,0.3,2.3,100,0.00,,FEW,0.20,WeatherDisplay:10.37,2013-05-11 11:06:00,
2013-05-11 06:11:00,69.7,69.7,29.17,NE,53,0.6,2.3,100,0.00,,FEW,0.20,WeatherDisplay:10.37,2013-05-11 11:11:00,
2013-05-11 06:16:00,69.7,69.7,29.16,ENE,61,0.4,2.3,100,0.00,,FEW,0.20,WeatherDisplay:10.37,2013-05-11 11:16:00,
2013-05-11 06:21:00,69.5,69.5,29.16,NE,43,2.9,5.8,100,0.00,,FEW,0.20,WeatherDisplay:10.37,2013-05-11 11:21:00,
2013-05-11 06:26:00,69.4,69.4,29.16,ENE,63,0.4,2.3,100,0.00,,FEW,0.20,WeatherDisplay:10.37,2013-05-11 11:26:00,
2013-05-11 06:31:00,69.2,69.2,29.17,ENE,71,0.7,2.3,100,0.00,,FEW,0.20,WeatherDisplay:10.37,2013-05-11 11:31:00,
2013-05-11 06:36:00,69.0,69.0,29.17,ENE,63,0.0,2.3,100,0.00,,FEW,0.20,WeatherDisplay:10.37,2013-05-11 11:36:00,
2013-05-11 06:41:00,68.9,68.9,29.18,ENE,59,0.5,2.3,100,0.00,,FEW,0.20,WeatherDisplay:10.37,2013-05-11 11:41:00,
2013-05-11 06:46:00,68.7,68.7,29.17,ENE,60,0.2,2.3,100,0.00,,FEW,0.20,WeatherDisplay:10.37,2013-05-11 11:46:00,
2013-05-11 06:51:00,68.6,68.6,29.17,ENE,69,0.7,2.3,100,0.00,,FEW,0.20,WeatherDisplay:10.37,2013-05-11 11:51:00,
2013-05-11 06:56:00,68.6,68.6,29.17,ENE,73,0.4,2.3,100,0.00,,FEW,0.20,WeatherDisplay:10.37,2013-05-11 11:56:00,
2013-05-11 07:01:00,68.5,68.5,29.17,ENE,66,0.0,0.0,100,0.00,,FEW,0.20,WeatherDisplay:10.37,2013-05-11 12:01:00,
2013-05-11 07:06:00,68.5,68.5,29.17,NE,56,0.1,1.9,100,0.00,,FEW,0.20,WeatherDisplay:10.37,2013-05-11 12:06:00,
2013-05-11 07:11:00,68.6,68.6,29.17,ENE,57,5.0,5.8,100,0.00,,FEW,0.20,WeatherDisplay:10.37,2013-05-11 12:11:00,
2013-05-11 07:16:00,68.7,68.7,29.18,ENE,64,2.2,3.8,100,0.00,,FEW,0.20,WeatherDisplay:10.37,2013-05-11 12:16:00,
2013-05-11 07:21:00,68.8,68.8,29.18,NE,47,2.1,3.5,100,0.00,,FEW,0.20,WeatherDisplay:10.37,2013-05-11 12:21:00,
2013-05-11 07:26:00,68.8,68.8,29.19,ENE,66,0.3,2.3,100,0.00,,FEW,0.20,WeatherDisplay:10.37,2013-05-11 12:26:00,
2013-05-11 07:31:00,68.8,68.8,29.20,East,99,0.1,1.1,100,0.00,,FEW,0.20,WeatherDisplay:10.37,2013-05-11 12:31:00,
2013-05-11 07:36:00,68.9,68.9,29.20,ENE,70,1.4,2.3,100,0.00,,FEW,0.20,WeatherDisplay:10.37,2013-05-11 12:36:00,
2013-05-11 07:41:00,69.1,69.1,29.20,East,88,0.2,0.0,100,0.00,,FEW,0.20,WeatherDisplay:10.37,2013-05-11 12:41:00,
2013-05-11 07:46:00,69.3,69.3,29.20,ENE,62,0.6,2.3,100,0.00,,FEW,0.20,WeatherDisplay:10.37,2013-05-11 12:46:00,
2013-05-11 07:51:00,69.4,69.4,29.20,ENE,62,0.0,2.3,100,0.00,,FEW,0.20,WeatherDisplay:10.37,2013-05-11 12:51:00,
2013-05-11 07:56:00,69.6,69.6,29.20,East,98,1.6,3.2,100,0.00,,FEW,0.20,WeatherDisplay:10.37,2013-05-11 12:56:00,
2013-05-11 08:01:00,69.9,69.9,29.20,ESE,102,4.0,8.1,100,0.00,,FEW,0.20,WeatherDisplay:10.37,2013-05-11 13:01:00,
2013-05-11 08:06:00,70.5,70.5,29.20,East,101,3.1,5.8,100,0.00,,FEW,0.20,WeatherDisplay:10.37,2013-05-11 13:06:00,
2013-05-11 08:11:00,70.7,70.7,29.20,NE,54,8.7,8.7,100,0.00,,FEW,0.20,WeatherDisplay:10.37,2013-05-11 13:11:00,
2013-05-11 08:16:00,71.0,71.0,29.21,NE,42,12.6,12.6,100,0.00,,FEW,0.20,WeatherDisplay:10.37,2013-05-11 13:16:00,
2013-05-11 08:21:00,71.3,71.3,29.22,ENE,59,6.8,8.1,100,0.00,,FEW,0.20,WeatherDisplay:10.37,2013-05-11 13:21:00,
2013-05-11 08:26:00,71.5,71.5,29.22,East,88,2.2,9.2,100,0.00,,FEW,0.20,WeatherDisplay:10.37,2013-05-11 13:26:00,
2013-05-11 08:31:00,71.6,71.6,29.24,NE,54,3.3,8.1,100,0.00,,FEW,0.20,WeatherDisplay:10.37,2013-05-11 13:31:00,
2013-05-11 08:36:00,71.7,70.2,29.24,East,83,2.6,4.2,95,0.00,,FEW,0.20,WeatherDisplay:10.37,2013-05-11 13:36:00,
2013-05-11 08:41:00,71.7,69.9,29.25,ENE,59,6.2,6.2,94,0.00,,FEW,0.20,WeatherDisplay:10.37,2013-05-11 13:41:00,
2013-05-11 08:46:00,71.8,69.7,29.24,NE,53,8.1,8.1,93,0.00,,FEW,0.20,WeatherDisplay:10.37,2013-05-11 13:46:00,
2013-05-11 08:51:00,72.3,70.2,29.24,NNE,30,0.5,2.3,93,0.00,,FEW,0.20,WeatherDisplay:10.37,2013-05-11 13:51:00,
2013-05-11 08:56:00,73.2,71.1,29.24,NNW,336,1.3,5.8,93,0.00,,FEW,0.20,WeatherDisplay:10.37,2013-05-11 13:56:00,
2013-05-11 09:01:00,73.8,71.3,29.24,North,357,1.3,3.8,92,0.00,,FEW,0.20,WeatherDisplay:10.37,2013-05-11 14:01:00,
2013-05-11 09:06:00,74.1,71.3,29.23,NE,40,3.7,5.8,91,0.00,,FEW,0.20,WeatherDisplay:10.37,2013-05-11 14:06:00,
2013-05-11 09:11:00,74.4,71.6,29.23,NNE,20,2.3,3.5,91,0.00,,FEW,0.20,WeatherDisplay:10.37,2013-05-11 14:11:00,
2013-05-11 09:16:00,74.7,71.2,29.23,NNE,17,2.7,5.8,89,0.00,,FEW,0.20,WeatherDisplay:10.37,2013-05-11 14:16:00,
2013-05-11 09:21:00,74.5,70.0,29.23,NNW,331,9.9,12.7,86,0.00,,FEW,0.20,WeatherDisplay:10.37,2013-05-11 14:21:00,
2013-05-11 09:26:00,74.3,70.5,29.23,NNE,26,6.7,11.5,88,0.00,,FEW,0.20,WeatherDisplay:10.37,2013-05-11 14:26:00,
2013-05-11 09:31:00,74.5,70.4,29.23,NNW,334,6.1,6.1,87,0.00,,FEW,0.20,WeatherDisplay:10.37,2013-05-11 14:31:00,
2013-05-11 09:36:00,74.2,70.1,29.23,NNW,340,5.6,12.7,87,0.00,,FEW,0.20,WeatherDisplay:10.37,2013-05-11 14:36:00,
2013-05-11 09:41:00,73.8,69.0,29.23,NW,311,7.7,9.2,85,0.00,,FEW,0.20,WeatherDisplay:10.37,2013-05-11 14:41:00,
2013-05-11 09:46:00,73.1,68.7,29.23,NW,321,8.9,11.3,86,0.00,,FEW,0.20,WeatherDisplay:10.37,2013-05-11 14:46:00,
2013-05-11 09:51:00,73.2,69.1,29.23,NE,42,11.9,11.9,87,0.00,,FEW,0.20,WeatherDisplay:10.37,2013-05-11 14:51:00,
2013-05-11 09:56:00,73.6,69.2,29.23,NE,56,11.2,11.5,86,0.00,,FEW,0.20,WeatherDisplay:10.37,2013-05-11 14:56:00,
2013-05-11 10:01:00,73.8,69.0,29.23,NE,47,11.5,12.7,85,0.00,,FEW,0.20,WeatherDisplay:10.37,2013-05-11 15:01:00,
2013-05-11 10:06:00,74.4,69.2,29.23,NE,52,9.4,9.4,84,0.00,,FEW,0.20,WeatherDisplay:10.37,2013-05-11 15:06:00,
2013-05-11 10:11:00,74.7,69.2,29.23,NNW,341,4.6,8.1,83,0.00,,FEW,0.20,WeatherDisplay:10.37,2013-05-11 15:11:00,
2013-05-11 10:16:00,75.2,69.3,29.23,North,354,7.1,9.2,82,0.00,,FEW,0.20,WeatherDisplay:10.37,2013-05-11 15:16:00,
2013-05-11 10:21:00,75.7,69.5,29.23,NW,316,14.3,14.3,81,0.00,,FEW,0.20,WeatherDisplay:10.37,2013-05-11 15:21:00,
2013-05-11 10:26:00,76.0,69.7,29.23,North,3,5.5,9.2,81,0.00,,FEW,0.20,WeatherDisplay:10.37,2013-05-11 15:26:00,
2013-05-11 10:31:00,76.3,69.7,29.24,NNW,339,3.4,9.2,80,0.00,,FEW,0.20,WeatherDisplay:10.37,2013-05-11 15:31:00,
2013-05-11 10:36:00,76.6,69.2,29.24,NNE,13,10.4,10.4,78,0.00,,FEW,0.20,WeatherDisplay:10.37,2013-05-11 15:36:00,
2013-05-11 10:41:00,76.6,68.8,29.24,NNE,17,13.1,13.1,77,0.00,,FEW,0.20,WeatherDisplay:10.37,2013-05-11 15:41:00,
2013-05-11 10:46:00,77.0,69.6,29.24,NNW,341,2.6,9.2,78,0.00,,FEW,0.20,WeatherDisplay:10.37,2013-05-11 15:46:00,
2013-05-11 10:51:00,77.7,70.3,29.25,NNE,25,0.9,2.3,78,0.00,,FEW,0.20,WeatherDisplay:10.37,2013-05-11 15:51:00,
2013-05-11 10:56:00,78.2,70.0,29.24,ENE,63,4.8,5.8,76,0.00,,FEW,0.20,WeatherDisplay:10.37,2013-05-11 15:56:00,
2013-05-11 11:01:00,78.2,69.2,29.24,North,353,7.9,7.9,74,0.00,,FEW,0.20,WeatherDisplay:10.37,2013-05-11 16:01:00,
2013-05-11 11:06:00,78.7,68.9,29.25,NNE,25,4.4,8.1,72,0.00,,FEW,0.20,WeatherDisplay:10.37,2013-05-11 16:06:00,
2013-05-11 11:11:00,79.2,69.0,29.24,ENE,66,9.3,12.7,71,0.00,,FEW,0.20,WeatherDisplay:10.37,2013-05-11 16:11:00,
2013-05-11 11:16:00,79.4,68.3,29.24,North,355,8.1,11.5,69,0.00,,FEW,0.20,WeatherDisplay:10.37,2013-05-11 16:16:00,
2013-05-11 11:21:00,79.5,68.9,29.24,NE,54,6.0,6.0,70,0.00,,FEW,0.20,WeatherDisplay:10.37,2013-05-11 16:21:00,
2013-05-11 11:26:00,80.5,69.8,29.24,North,350,0.9,3.5,70,0.00,,FEW,0.20,WeatherDisplay:10.37,2013-05-11 16:26:00,
2013-05-11 11:31:00,80.8,68.8,29.24,NNE,20,4.7,9.2,67,0.00,,FEW,0.20,WeatherDisplay:10.37,2013-05-11 16:31:00,
2013-05-11 11:36:00,81.0,69.0,29.23,NE,43,5.4,9.2,67,0.00,,FEW,0.20,WeatherDisplay:10.37,2013-05-11 16:36:00,
2013-05-11 11:41:00,81.5,69.5,29.24,North,353,2.6,5.8,67,0.00,,FEW,0.20,WeatherDisplay:10.37,2013-05-11 16:41:00,
2013-05-11 11:46:00,81.8,68.9,29.24,ENE,57,7.1,8.1,65,0.00,,FEW,0.20,WeatherDisplay:10.37,2013-05-11 16:46:00,
2013-05-11 11:51:00,82.1,69.6,29.24,NE,53,2.6,3.5,66,0.00,,FEW,0.20,WeatherDisplay:10.37,2013-05-11 16:51:00,
2013-05-11 11:56:00,82.7,69.7,29.23,North,5,4.2,4.2,65,0.00,,FEW,0.20,WeatherDisplay:10.37,2013-05-11 16:56:00,
2013-05-11 12:01:00,82.8,68.9,29.24,North,9,1.3,5.8,63,0.00,,FEW,0.20,WeatherDisplay:10.37,2013-05-11 17:01:00,
2013-05-11 12:06:00,83.7,69.8,29.23,ENE,62,4.6,5.6,63,0.00,,FEW,0.20,WeatherDisplay:10.37,2013-05-11 17:06:00,
2013-05-11 12:11:00,83.6,67.8,29.24,ENE,57,7.0,7.0,59,0.00,,FEW,0.20,WeatherDisplay:10.37,2013-05-11 17:11:00,
2013-05-11 12:16:00,83.7,67.4,29.24,ENE,57,8.1,8.1,58,0.00,,FEW,0.20,WeatherDisplay:10.37,2013-05-11 17:16:00,
2013-05-11 12:21:00,83.9,67.0,29.24,NNE,28,5.6,8.1,57,0.00,,FEW,0.20,WeatherDisplay:10.37,2013-05-11 17:21:00,
2013-05-11 12:26:00,84.3,66.9,29.24,North,356,1.8,5.8,56,0.00,,FEW,0.20,WeatherDisplay:10.37,2013-05-11 17:26:00,
2013-05-11 12:31:00,84.0,67.6,29.24,NE,56,5.1,9.2,58,0.00,,FEW,0.20,WeatherDisplay:10.37,2013-05-11 17:31:00,
2013-05-11 12:36:00,83.9,70.0,29.24,ENE,70,11.9,11.9,63,0.00,,FEW,0.20,WeatherDisplay:10.37,2013-05-11 17:36:00,
2013-05-11 12:41:00,83.1,68.7,29.24,SE,137,8.0,24.4,62,0.00,,FEW,0.20,WeatherDisplay:10.37,2013-05-11 17:41:00,
2013-05-11 12:46:00,82.5,69.1,29.24,ESE,121,7.9,9.2,64,0.00,,FEW,0.20,WeatherDisplay:10.37,2013-05-11 17:46:00,
2013-05-11 12:51:00,82.4,69.0,29.24,ESE,108,5.6,15.0,64,0.00,,FEW,0.20,WeatherDisplay:10.37,2013-05-11 17:51:00,
2013-05-11 12:56:00,82.1,68.7,29.23,ENE,61,15.7,15.7,64,0.00,,FEW,0.20,WeatherDisplay:10.37,2013-05-11 17:56:00,
2013-05-11 13:01:00,82.3,68.9,29.24,NE,53,6.7,11.5,64,0.00,,FEW,0.20,WeatherDisplay:10.37,2013-05-11 18:01:00,
2013-05-11 13:06:00,82.1,67.8,29.24,East,94,9.4,12.7,62,0.00,,FEW,0.20,WeatherDisplay:10.37,2013-05-11 18:06:00,
2013-05-11 13:11:00,82.2,67.4,29.24,East,95,6.8,12.7,61,0.00,,FEW,0.20,WeatherDisplay:10.37,2013-05-11 18:11:00,
2013-05-11 13:16:00,82.7,67.9,29.24,SE,141,6.6,12.7,61,0.00,,FEW,0.20,WeatherDisplay:10.37,2013-05-11 18:16:00,
2013-05-11 13:21:00,83.2,68.3,29.23,East,94,3.7,9.2,61,0.00,,FEW,0.20,WeatherDisplay:10.37,2013-05-11 18:21:00,
2013-05-11 13:26:00,83.7,68.8,29.23,ESE,115,5.6,13.8,61,0.00,,FEW,0.20,WeatherDisplay:10.37,2013-05-11 18:26:00,
2013-05-11 13:31:00,83.9,68.0,29.23,ENE,58,15.2,15.2,59,0.00,,FEW,0.20,WeatherDisplay:10.37,2013-05-11 18:31:00,
2013-05-11 13:36:00,83.5,67.2,29.23,East,94,8.7,10.4,58,0.00,,FEW,0.20,WeatherDisplay:10.37,2013-05-11 18:36:00,
2013-05-11 13:41:00,83.6,68.2,29.23,ENE,66,9.9,11.3,60,0.00,,FEW,0.20,WeatherDisplay:10.37,2013-05-11 18:41:00,
2013-05-11 13:46:00,83.7,67.8,29.23,ENE,75,13.9,13.9,59,0.00,,FEW,0.20,WeatherDisplay:10.37,2013-05-11 18:46:00,
2013-05-11 13:51:00,83.9,67.0,29.23,ENE,59,14.7,15.0,57,0.00,,FEW,0.20,WeatherDisplay:10.37,2013-05-11 18:51:00,
2013-05-11 13:56:00,83.9,67.5,29.23,ESE,102,2.0,9.2,58,0.00,,FEW,0.20,WeatherDisplay:10.37,2013-05-11 18:56:00,
2013-05-11 14:01:00,83.8,69.9,29.23,SSE,152,5.4,11.5,63,0.00,,FEW,0.20,WeatherDisplay:10.37,2013-05-11 19:01:00,
2013-05-11 14:06:00,83.1,69.7,29.23,ENE,76,7.9,8.1,64,0.00,,FEW,0.20,WeatherDisplay:10.37,2013-05-11 19:06:00,
2013-05-11 14:11:00,83.1,71.4,29.23,SE,135,6.3,15.0,68,0.00,,FEW,0.20,WeatherDisplay:10.37,2013-05-11 19:11:00,
2013-05-11 14:16:00,82.7,71.1,29.23,SE,126,9.7,9.7,68,0.00,,FEW,0.20,WeatherDisplay:10.37,2013-05-11 19:16:00,
2013-05-11 14:21:00,82.6,71.8,29.23,ESE,122,4.3,6.9,70,0.00,,FEW,0.20,WeatherDisplay:10.37,2013-05-11 19:21:00,
2013-05-11 14:26:00,83.1,70.6,29.23,ESE,103,6.5,11.5,66,0.00,,FEW,0.20,WeatherDisplay:10.37,2013-05-11 19:26:00,
2013-05-11 14:31:00,83.2,71.5,29.23,SE,126,6.0,8.1,68,0.00,,FEW,0.20,WeatherDisplay:10.37,2013-05-11 19:31:00,
2013-05-11 14:36:00,82.7,71.5,29.23,East,99,4.3,8.1,69,0.00,,FEW,0.20,WeatherDisplay:10.37,2013-05-11 19:36:00,
2013-05-11 14:41:00,82.3,71.5,29.23,ESE,113,4.8,8.1,70,0.00,,FEW,0.20,WeatherDisplay:10.37,2013-05-11 19:41:00,
2013-05-11 14:46:00,82.3,71.5,29.23,ESE,106,5.2,12.7,70,0.00,,FEW,0.20,WeatherDisplay:10.37,2013-05-11 19:46:00,
2013-05-11 14:51:00,82.2,71.9,29.23,SSE,156,4.5,11.5,71,0.00,,FEW,0.20,WeatherDisplay:10.37,2013-05-11 19:51:00,
2013-05-11 14:56:00,82.1,71.3,29.22,SE,137,6.3,6.9,70,0.00,,FEW,0.20,WeatherDisplay:10.37,2013-05-11 19:56:00,
2013-05-11 15:01:00,82.4,71.6,29.23,East,95,4.5,9.2,70,0.00,,FEW,0.20,WeatherDisplay:10.37,2013-05-11 20:01:00,
2013-05-11 15:06:00,81.4,70.7,29.23,SE,143,6.1,17.3,70,0.00,,FEW,0.20,WeatherDisplay:10.37,2013-05-11 20:06:00,
2013-05-11 15:11:00,81.7,71.8,29.23,ESE,102,3.9,10.4,72,0.00,,FEW,0.20,WeatherDisplay:10.37,2013-05-11 20:11:00,
2013-05-11 15:16:00,81.4,71.5,29.23,East,85,6.6,11.5,72,0.00,,FEW,0.20,WeatherDisplay:10.37,2013-05-11 20:16:00,
2013-05-11 15:21:00,81.4,71.1,29.23,SE,141,5.4,9.2,71,0.00,,FEW,0.20,WeatherDisplay:10.37,2013-05-11 20:21:00,
2013-05-11 15:26:00,81.3,71.0,29.23,SE,125,8.9,10.4,71,0.00,,FEW,0.20,WeatherDisplay:10.37,2013-05-11 20:26:00,
2013-05-11 15:31:00,81.0,71.1,29.22,East,85,4.2,6.9,72,0.00,,FEW,0.20,WeatherDisplay:10.37,2013-05-11 20:31:00,
2013-05-11 15:36:00,81.1,70.8,29.22,SE,139,10.8,16.1,71,0.00,,FEW,0.20,WeatherDisplay:10.37,2013-05-11 20:36:00,
2013-05-11 15:41:00,80.7,71.2,29.22,ESE,116,6.0,8.1,73,0.00,,FEW,0.20,WeatherDisplay:10.37,2013-05-11 20:41:00,
2013-05-11 15:46:00,80.4,70.9,29.22,ENE,71,9.0,9.2,73,0.00,,FEW,0.20,WeatherDisplay:10.37,2013-05-11 20:46:00,
2013-05-11 15:51:00,80.4,71.7,29.22,ESE,112,6.7,13.7,75,0.00,,FEW,0.20,WeatherDisplay:10.37,2013-05-11 20:51:00,
2013-05-11 15:56:00,80.3,71.3,29.22,SE,128,6.2,9.2,74,0.00,,FEW,0.20,WeatherDisplay:10.37,2013-05-11 20:56:00,
2013-05-11 16:01:00,80.3,71.3,29.22,East,83,3.3,10.4,74,0.00,,FEW,0.20,WeatherDisplay:10.37,2013-05-11 21:01:00,
2013-05-11 16:06:00,80.7,71.2,29.22,ESE,106,8.4,9.4,73,0.00,,FEW,0.20,WeatherDisplay:10.37,2013-05-11 21:06:00,
2013-05-11 16:11:00,80.7,71.2,29.21,ESE,123,5.9,17.3,73,0.00,,FEW,0.20,WeatherDisplay:10.37,2013-05-11 21:11:00,
2013-05-11 16:16:00,80.8,70.9,29.21,ESE,109,6.4,12.7,72,0.00,,FEW,0.20,WeatherDisplay:10.37,2013-05-11 21:16:00,
2013-05-11 16:21:00,80.7,70.4,29.21,East,96,6.5,6.9,71,0.00,,FEW,0.20,WeatherDisplay:10.37,2013-05-11 21:21:00,
2013-05-11 16:26:00,80.8,70.9,29.21,East,99,5.1,5.8,72,0.00,,FEW,0.20,WeatherDisplay:10.37,2013-05-11 21:26:00,
2013-05-11 16:31:00,80.8,70.9,29.21,ENE,75,10.0,10.0,72,0.00,,FEW,0.20,WeatherDisplay:10.37,2013-05-11 21:31:00,
2013-05-11 16:36:00,80.4,70.5,29.21,East,83,8.7,17.3,72,0.00,,FEW,0.20,WeatherDisplay:10.37,2013-05-11 21:36:00,
2013-05-11 16:41:00,80.5,71.0,29.20,SE,137,2.9,6.9,73,0.00,,FEW,0.20,WeatherDisplay:10.37,2013-05-11 21:41:00,
2013-05-11 16:46:00,80.9,71.0,29.21,ESE,123,4.4,8.1,72,0.00,,FEW,0.20,WeatherDisplay:10.37,2013-05-11 21:46:00,
2013-05-11 16:51:00,80.7,71.2,29.21,East,96,2.8,10.4,73,0.00,,FEW,0.20,WeatherDisplay:10.37,2013-05-11 21:51:00,
2013-05-11 16:56:00,80.9,71.4,29.21,ESE,102,3.4,8.1,73,0.00,,FEW,0.20,WeatherDisplay:10.37,2013-05-11 21:56:00,
2013-05-11 17:01:00,81.1,71.6,29.21,ESE,108,2.9,6.9,73,0.00,,FEW,0.20,WeatherDisplay:10.37,2013-05-11 22:01:00,
2013-05-11 17:06:00,81.4,71.5,29.21,ESE,110,6.4,12.7,72,0.00,,FEW,0.20,WeatherDisplay:10.37,2013-05-11 22:06:00,
2013-05-11 17:11:00,81.1,71.6,29.20,East,88,5.5,9.2,73,0.00,,FEW,0.20,WeatherDisplay:10.37,2013-05-11 22:11:00,
2013-05-11 17:16:00,80.6,71.5,29.20,ESE,114,3.5,4.6,74,0.00,,FEW,0.20,WeatherDisplay:10.37,2013-05-11 22:16:00,
2013-05-11 17:21:00,80.9,71.8,29.20,ESE,104,3.6,6.9,74,0.00,,FEW,0.20,WeatherDisplay:10.37,2013-05-11 22:21:00,
2013-05-11 17:26:00,80.4,70.9,29.20,ESE,109,6.8,8.1,73,0.00,,FEW,0.20,WeatherDisplay:10.37,2013-05-11 22:26:00,
2013-05-11 17:31:00,80.0,71.0,29.20,East,88,5.3,7.4,74,0.00,,FEW,0.20,WeatherDisplay:10.37,2013-05-11 22:31:00,
2013-05-11 17:36:00,79.7,71.5,29.20,ESE,123,2.0,9.2,76,0.00,,FEW,0.20,WeatherDisplay:10.37,2013-05-11 22:36:00,
2013-05-11 17:41:00,79.4,71.2,29.20,ESE,113,4.5,8.1,76,0.00,,FEW,0.20,WeatherDisplay:10.37,2013-05-11 22:41:00,
2013-05-11 17:46:00,79.0,70.8,29.20,SE,142,5.0,6.9,76,0.00,,FEW,0.20,WeatherDisplay:10.37,2013-05-11 22:46:00,
2013-05-11 17:51:00,78.9,71.1,29.20,ESE,116,5.7,5.8,77,0.00,,FEW,0.20,WeatherDisplay:10.37,2013-05-11 22:51:00,
2013-05-11 17:56:00,78.9,71.1,29.20,ESE,109,3.1,5.8,77,0.00,,FEW,0.20,WeatherDisplay:10.37,2013-05-11 22:56:00,
2013-05-11 18:01:00,78.7,70.9,29.20,East,95,3.8,5.8,77,0.00,,FEW,0.20,WeatherDisplay:10.37,2013-05-11 23:01:00,
2013-05-11 18:06:00,78.7,71.3,29.20,East,80,2.3,2.3,78,0.00,,FEW,0.20,WeatherDisplay:10.37,2013-05-11 23:06:00,
2013-05-11 18:11:00,78.6,70.8,29.20,East,79,2.8,4.6,77,0.00,,FEW,0.20,WeatherDisplay:10.37,2013-05-11 23:11:00,
2013-05-11 18:16:00,78.7,71.3,29.20,East,99,2.6,6.9,78,0.00,,FEW,0.20,WeatherDisplay:10.37,2013-05-11 23:16:00,
2013-05-11 18:21:00,78.7,71.3,29.20,East,101,1.8,3.5,78,0.00,,FEW,0.20,WeatherDisplay:10.37,2013-05-11 23:21:00,
2013-05-11 18:26:00,78.6,71.2,29.21,SE,131,4.8,5.8,78,0.00,,FEW,0.20,WeatherDisplay:10.37,2013-05-11 23:26:00,
2013-05-11 18:31:00,78.3,71.2,29.21,SE,138,5.3,5.8,79,0.00,,FEW,0.20,WeatherDisplay:10.37,2013-05-11 23:31:00,
2013-05-11 18:36:00,78.1,71.4,29.21,ESE,117,1.0,2.3,80,0.00,,FEW,0.20,WeatherDisplay:10.37,2013-05-11 23:36:00,
2013-05-11 18:41:00,78.1,71.4,29.21,SSE,155,2.8,5.8,80,0.00,,FEW,0.20,WeatherDisplay:10.37,2013-05-11 23:41:00,
2013-05-11 18:46:00,78.0,71.3,29.20,ESE,108,6.4,6.4,80,0.00,,FEW,0.20,WeatherDisplay:10.37,2013-05-11 23:46:00,
2013-05-11 18:51:00,77.8,71.1,29.21,ESE,105,5.1,6.9,80,0.00,,FEW,0.20,WeatherDisplay:10.37,2013-05-11 23:51:00,
2013-05-11 18:56:00,77.5,71.2,29.21,ESE,118,2.0,3.5,81,0.00,,FEW,0.20,WeatherDisplay:10.37,2013-05-11 23:56:00,
2013-05-11 19:01:00,77.3,71.0,29.21,SSE,152,4.7,4.7,81,0.00,,FEW,0.20,WeatherDisplay:10.37,2013-05-12 00:01:00,
2013-05-11 19:06:00,77.0,70.7,29.21,ESE,111,4.1,4.2,81,0.00,,FEW,0.20,WeatherDisplay:10.37,2013-05-12 00:06:00,
2013-05-11 19:11:00,76.9,71.0,29.21,SE,140,3.3,5.8,82,0.00,,FEW,0.20,WeatherDisplay:10.37,2013-05-12 00:11:00,
2013-05-11 19:16:00,76.9,71.0,29.21,ESE,121,0.8,2.3,82,0.00,,FEW,0.20,WeatherDisplay:10.37,2013-05-12 00:16:00,
2013-05-11 19:21:00,76.9,71.0,29.21,SSE,155,3.2,5.8,82,0.00,,FEW,0.20,WeatherDisplay:10.37,2013-05-12 00:21:00,
2013-05-11 19:26:00,76.7,70.8,29.22,ESE,116,3.1,4.6,82,0.00,,FEW,0.20,WeatherDisplay:10.37,2013-05-12 00:26:00,
2013-05-11 19:31:00,76.4,70.9,29.22,ESE,121,2.0,5.8,83,0.00,,FEW,0.20,WeatherDisplay:10.37,2013-05-12 00:31:00,
2013-05-11 19:36:00,76.1,70.6,29.22,ESE,105,3.0,5.8,83,0.00,,FEW,0.20,WeatherDisplay:10.37,2013-05-12 00:36:00,
2013-05-11 19:41:00,75.9,70.4,29.22,ENE,66,3.5,3.5,83,0.00,,FEW,0.20,WeatherDisplay:10.37,2013-05-12 00:41:00,
2013-05-11 19:46:00,75.6,70.4,29.22,ESE,114,3.3,5.8,84,0.00,,FEW,0.20,WeatherDisplay:10.37,2013-05-12 00:46:00,
2013-05-11 19:51:00,75.4,70.2,29.23,SE,126,1.4,5.8,84,0.00,,FEW,0.20,WeatherDisplay:10.37,2013-05-12 00:51:00,
2013-05-11 19:56:00,75.3,70.1,29.23,ESE,114,2.8,4.6,84,0.00,,FEW,0.20,WeatherDisplay:10.37,2013-05-12 00:56:00,
2013-05-11 20:01:00,75.2,70.0,29.24,ESE,110,2.5,3.5,84,0.00,,FEW,0.20,WeatherDisplay:10.37,2013-05-12 01:01:00,
2013-05-11 20:06:00,75.0,69.8,29.24,ESE,107,1.9,4.6,84,0.00,,FEW,0.20,WeatherDisplay:10.37,2013-05-12 01:06:00,
2013-05-11 20:11:00,75.0,69.8,29.24,East,91,0.3,2.3,84,0.00,,FEW,0.20,WeatherDisplay:10.37,2013-05-12 01:11:00,
2013-05-11 20:16:00,74.9,69.7,29.25,ESE,102,0.6,2.3,84,0.00,,FEW,0.20,WeatherDisplay:10.37,2013-05-12 01:16:00,
2013-05-11 20:21:00,74.8,69.6,29.25,East,101,0.2,1.1,84,0.00,,FEW,0.20,WeatherDisplay:10.37,2013-05-12 01:21:00,
2013-05-11 20:26:00,74.8,69.6,29.25,ESE,102,0.0,1.1,84,0.00,,FEW,0.20,WeatherDisplay:10.37,2013-05-12 01:26:00,
2013-05-11 20:31:00,74.6,69.4,29.25,ESE,114,0.0,0.0,84,0.00,,FEW,0.20,WeatherDisplay:10.37,2013-05-12 01:31:00,
2013-05-11 20:36:00,74.4,69.2,29.25,ESE,114,0.2,1.1,84,0.00,,FEW,0.20,WeatherDisplay:10.37,2013-05-12 01:36:00,
2013-05-11 20:41:00,74.3,69.1,29.26,SE,125,0.0,0.0,84,0.00,,FEW,0.20,WeatherDisplay:10.37,2013-05-12 01:41:00,
2013-05-11 20:46:00,74.1,69.3,29.26,ESE,123,0.2,0.0,85,0.00,,FEW,0.20,WeatherDisplay:10.37,2013-05-12 01:46:00,
2013-05-11 20:51:00,73.9,69.1,29.26,ESE,108,0.0,0.0,85,0.00,,FEW,0.20,WeatherDisplay:10.37,2013-05-12 01:51:00,
2013-05-11 20:56:00,73.8,69.0,29.26,ESE,105,0.3,1.1,85,0.00,,FEW,0.20,WeatherDisplay:10.37,2013-05-12 01:56:00,
2013-05-11 21:01:00,73.7,68.9,29.27,ESE,111,0.3,1.1,85,0.00,,FEW,0.20,WeatherDisplay:10.37,2013-05-12 02:01:00,
2013-05-11 21:06:00,73.7,68.9,29.27,ESE,123,0.1,1.1,85,0.00,,FEW,0.20,WeatherDisplay:10.37,2013-05-12 02:06:00,
2013-05-11 21:11:00,73.6,68.8,29.27,ESE,123,0.0,0.0,85,0.00,,FEW,0.20,WeatherDisplay:10.37,2013-05-12 02:11:00,
2013-05-11 21:16:00,73.5,68.7,29.26,ESE,123,0.0,1.1,85,0.00,,FEW,0.20,WeatherDisplay:10.37,2013-05-12 02:16:00,
2013-05-11 21:21:00,73.3,68.5,29.26,SE,124,0.0,1.1,85,0.00,,FEW,0.20,WeatherDisplay:10.37,2013-05-12 02:21:00,
2013-05-11 21:26:00,73.2,68.4,29.27,ESE,105,0.0,1.1,85,0.00,,FEW,0.20,WeatherDisplay:10.37,2013-05-12 02:26:00,
2013-05-11 21:31:00,73.1,68.3,29.26,ESE,102,0.2,1.1,85,0.00,,FEW,0.20,WeatherDisplay:10.37,2013-05-12 02:31:00,
2013-05-11 21:36:00,73.0,68.2,29.26,East,99,0.2,1.1,85,0.00,,FEW,0.20,WeatherDisplay:10.37,2013-05-12 02:36:00,
2013-05-11 21:41:00,73.0,68.6,29.26,ESE,122,0.2,2.3,86,0.00,,FEW,0.20,WeatherDisplay:10.37,2013-05-12 02:41:00,
2013-05-11 21:46:00,73.0,68.6,29.26,ESE,108,0.2,0.0,86,0.00,,FEW,0.20,WeatherDisplay:10.37,2013-05-12 02:46:00,
2013-05-11 21:51:00,73.0,68.6,29.26,ESE,107,0.1,1.1,86,0.00,,FEW,0.20,WeatherDisplay:10.37,2013-05-12 02:51:00,
2013-05-11 21:56:00,73.0,68.6,29.27,ESE,107,0.0,1.1,86,0.00,,FEW,0.20,WeatherDisplay:10.37,2013-05-12 02:56:00,
2013-05-11 22:01:00,72.9,68.5,29.26,ESE,108,0.0,0.0,86,0.00,,FEW,0.20,WeatherDisplay:10.37,2013-05-12 03:01:00,
2013-05-11 22:06:00,72.9,68.5,29.27,ESE,107,0.0,0.0,86,0.00,,FEW,0.20,WeatherDisplay:10.37,2013-05-12 03:06:00,
2013-05-11 22:11:00,72.8,68.4,29.27,ESE,107,0.0,0.0,86,0.00,,FEW,0.20,WeatherDisplay:10.37,2013-05-12 03:11:00,
2013-05-11 22:16:00,72.7,68.6,29.27,ESE,107,0.0,0.0,87,0.00,,FEW,0.20,WeatherDisplay:10.37,2013-05-12 03:16:00,
2013-05-11 22:21:00,72.7,68.6,29.27,ESE,107,0.0,0.0,87,0.00,,FEW,0.20,WeatherDisplay:10.37,2013-05-12 03:21:00,
2013-05-11 22:26:00,72.6,68.5,29.27,ESE,107,0.0,0.0,87,0.00,,FEW,0.20,WeatherDisplay:10.37,2013-05-12 03:26:00,
2013-05-11 22:31:00,72.5,68.4,29.27,ESE,108,0.0,0.0,87,0.00,,FEW,0.20,WeatherDisplay:10.37,2013-05-12 03:31:00,
2013-05-11 22:36:00,72.4,68.6,29.27,NE,56,0.1,1.1,88,0.00,,FEW,0.20,WeatherDisplay:10.37,2013-05-12 03:36:00,
2013-05-11 22:41:00,72.4,68.6,29.28,NE,56,0.0,0.0,88,0.00,,FEW,0.20,WeatherDisplay:10.37,2013-05-12 03:41:00,
2013-05-11 22:46:00,72.4,68.6,29.28,NE,56,0.1,0.0,88,0.00,,FEW,0.20,WeatherDisplay:10.37,2013-05-12 03:46:00,
2013-05-11 22:51:00,72.4,68.6,29.28,NE,55,0.0,0.0,88,0.00,,FEW,0.20,WeatherDisplay:10.37,2013-05-12 03:51:00,
2013-05-11 22:56:00,72.4,68.6,29.28,NE,56,0.0,0.0,88,0.00,,FEW,0.20,WeatherDisplay:10.37,2013-05-12 03:56:00,
2013-05-11 23:01:00,72.3,68.9,29.28,NNE,21,0.0,0.0,89,0.00,,FEW,0.20,WeatherDisplay:10.37,2013-05-12 04:01:00,
2013-05-11 23:06:00,72.3,68.9,29.28,NNE,24,0.3,0.0,89,0.00,,FEW,0.20,WeatherDisplay:10.37,2013-05-12 04:06:00,
2013-05-11 23:11:00,72.3,68.9,29.28,NNE,24,0.1,2.3,89,0.00,,FEW,0.20,WeatherDisplay:10.37,2013-05-12 04:11:00,
2013-05-11 23:16:00,72.3,68.9,29.29,North,357,0.0,0.0,89,0.00,,FEW,0.20,WeatherDisplay:10.37,2013-05-12 04:16:00,
2013-05-11 23:21:00,72.4,69.0,29.29,North,2,0.0,0.0,89,0.00,,FEW,0.20,WeatherDisplay:10.37,2013-05-12 04:21:00,
2013-05-11 23:26:00,72.5,69.4,29.29,NNE,25,0.0,0.0,90,0.00,,FEW,0.20,WeatherDisplay:10.37,2013-05-12 04:26:00,
2013-05-11 23:31:00,72.5,69.4,29.29,NNE,28,0.0,0.0,90,0.00,,FEW,0.20,WeatherDisplay:10.37,2013-05-12 04:31:00,
2013-05-11 23:36:00,72.5,69.4,29.29,NNE,28,0.0,0.0,90,0.00,,FEW,0.20,WeatherDisplay:10.37,2013-05-12 04:36:00,
2013-05-11 23:41:00,72.5,69.4,29.29,North,5,0.3,2.3,90,0.00,,FEW,0.20,WeatherDisplay:10.37,2013-05-12 04:41:00,
2013-05-11 23:46:00,72.5,69.4,29.29,ENE,73,0.3,2.3,90,0.00,,FEW,0.20,WeatherDisplay:10.37,2013-05-12 04:46:00,
2013-05-11 23:51:00,72.6,69.2,29.29,NE,40,1.9,3.5,89,0.00,,FEW,0.20,WeatherDisplay:10.37,2013-05-12 04:51:00,
2013-05-11 23:56:00,72.9,68.8,29.30,NE,36,2.3,3.5,87,0.00,,FEW,0.20,WeatherDisplay:10.37,2013-05-12 04:56:00,